Station: Keith West

  Atmospheric Gas Attenuation - ITU Rec 676-11   --------------- db/100km ---------------
Date Time Temp RH % AH g/m3 Dew Point Wind Direction Speed kph Gust kph Barometer mB Rainfall Since 9am 24GHz 47GHz 76GHz 122GHz 134GHz 241GHz
21 18:10 13.5 60 7.02 5.9 17 20 1013.1 0 16.2 23.5 33.8 88.3 78.4 268.5
21 18:00 14.2 58 7.08 6.1 20 32 1003.8 0 16.3 23.1 33.3 87.3 77.8 266.6
21 17:50 14.6 56 7.01 6.1 15 15 1013.1 0 16.2 23.2 33.3 87.0 77.2 264.4
21 17:40 15.5 52 6.87 5.7 24 28 1013.1 0 15.8 22.7 32.4 84.7 74.6 255.5
21 17:30 16 49 6.68 5.3 24 30 1013.1 0 15.4 22.3 31.5 82.3 71.9 245.9
21 17:20 15.9 49 6.64 5.2 28 35 1013.1 0 15.3 22.3 31.4 82.0 71.5 244.5
21 17:10 16.5 48 6.74 5.4 30 33 1013.1 0 15.5 22.3 31.5 82.4 72.2 246.9
21 17:00 16.5 48 6.74 5.5 30 44 1003.5 0 15.5 22.0 31.2 81.5 71.6 244.9
21 16:50 16.5 47 6.6 5.1 26 32 1013.1 0 15.2 22.1 31.0 81.0 70.5 241.1
21 16:40 17.4 42 6.22 4.3 46 56 1013.1 0 14.4 21.4 29.4 76.6 65.3 223.0
21 16:30 17.5 42 6.26 4.5 39 56 1003.2 0 14.5 21.1 29.1 76.0 65.1 222.4
21 16:20 17.3 47 6.92 5.9 37 44 1013.1 0 15.9 22.4 31.9 83.3 73.6 251.9
21 16:10 17.4 45 6.67 5.6 41 48 1013.1 0 15.3 22.0 30.9 80.8 70.5 241.3
21 16:00 17.5 45 6.71 5.4 41 57 1003.1 0 15.4 21.7 30.7 80.2 70.3 240.6
21 15:50 17.5 45 6.71 5.4 37 46 1013.1 0 15.4 22.0 31.0 81.1 70.9 242.6
21 15:40 17.8 43 6.53 5 33 43 1013.1 0 15.0 21.7 30.3 79.1 68.6 234.4
21 15:30 18.3 40 6.25 4.5 43 59 1003.1 0 14.4 20.9 28.8 75.2 64.4 219.8
21 15:20 17.8 46 6.98 6 43 48 1013.1 0 16.0 22.3 31.9 83.4 73.8 252.8
21 15:10 18.1 45 6.95 6 43 50 1013.1 0 15.9 22.2 31.7 82.8 73.2 250.7
21 15:00 18.8 46 7.41 6.9 39 54 1002.9 0 16.8 22.4 32.6 85.5 77.2 265.1
21 14:50 18.6 46 7.32 6.7 44 50 1013.1 0 16.7 22.6 32.8 85.8 77.1 264.3
21 14:40 18.6 47 7.48 7.3 35 44 1013.1 0 17.0 22.9 33.4 87.3 79.0 271.0
21 14:30 18 46 7.06 6.2 39 54 1003 0 16.1 22.1 31.7 83.0 73.9 253.3
21 14:20 19.3 44 7.3 7 35 46 1013.1 0 16.6 22.4 32.4 84.8 76.2 261.3
21 14:10 18.9 43 6.97 6 44 52 1013.1 0 15.9 22.1 31.4 82.1 72.7 249.0
21 14:00 17.8 41 6.22 4.4 46 61 1003.2 0 14.4 20.9 28.8 75.4 64.4 220.0
21 13:50 17.6 44 6.6 5.2 46 54 1013.1 0 15.2 21.8 30.6 80.0 69.5 237.8
21 13:40 17.6 42 6.3 4.5 41 50 1013.1 0 14.6 21.4 29.6 77.1 66.1 225.6
21 13:30 17.4 41 6.08 4 44 59 1003.2 0 14.1 20.8 28.5 74.5 63.1 215.5
21 13:20 17.9 39 5.95 3.7 43 54 1013.1 0 13.8 20.9 28.2 73.6 61.8 210.8
21 13:10 18.1 35 5.41 2.4 43 54 1013.1 0 12.7 20.1 26.4 68.6 55.7 189.2
21 13:00 18.9 33 5.35 2.3 48 63 1003.1 0 12.5 19.5 25.6 66.6 54.0 183.4
21 12:50 18.7 34 5.44 2.5 44 57 1013.1 0 12.7 20.0 26.3 68.3 55.6 189.0
21 12:40 18.5 34 5.38 2.3 43 54 1013.1 0 12.6 20.0 26.1 68.0 55.1 187.1
21 12:30 19.5 35 5.87 3.6 35 57 1003.2 0 13.6 20.1 27.1 70.7 59.2 201.9
21 12:20 17.7 38 5.73 3.2 32 39 1013.1 0 13.3 20.6 27.6 71.8 59.5 202.6
21 12:10 18.7 38 6.08 4.1 35 43 1013.1 0 14.0 20.9 28.4 74.1 62.7 213.9
21 12:00 18.2 40 6.22 4.4 33 50 1003.6 0 14.4 20.9 28.7 75.0 64.1 219.0
21 11:50 17.8 40 6.07 4 35 39 1013.1 0 14.1 21.1 28.7 74.8 63.3 215.9
21 11:40 17.8 42 6.37 4.7 32 39 1013.1 0 14.7 21.5 29.7 77.6 66.7 227.9
21 11:30 17.7 44 6.64 5.3 28 41 1003.7 0 15.3 21.6 30.4 79.4 69.3 237.3
21 11:20 17.4 46 6.82 5.9 33 39 1013.1 0 15.7 22.2 31.5 82.2 72.3 247.5
21 11:10 16.9 47 6.76 5.5 35 41 1013.1 0 15.5 22.2 31.4 82.2 72.0 246.5
21 11:00 16.7 48 6.82 5.6 33 44 1004.1 0 15.7 22.1 31.4 82.1 72.4 247.7
21 10:50 16.5 47 6.6 5.1 35 43 1013.1 0 15.2 22.1 31.0 81.0 70.5 241.1
21 10:40 16.2 48 6.62 5.4 37 43 1013.1 0 15.3 22.2 31.2 81.5 71.0 242.8
21 10:30 16.1 52 7.13 6.3 30 39 1004.6 0 16.4 22.7 32.8 85.8 76.6 262.7
21 10:20 15.9 54 7.31 6.8 28 33 1013.1 0 16.8 23.3 33.8 88.6 79.6 272.9
21 10:10 16.1 59 8.09 8.1 24 32 1013.1 0 18.4 24.4 36.7 96.2 89.1 306.1
21 10:00 15.2 58 7.53 7 30 41 1004.6 0 17.3 23.5 34.6 90.8 82.4 282.9
21 09:50 15.2 61 7.92 7.9 26 32 1013.1 0 18.1 24.4 36.5 95.5 87.9 302.0
21 09:40 15 63 8.08 8 24 28 1013.1 0 18.4 24.7 37.2 97.4 90.2 309.9
21 09:30 14.6 63 7.88 7.6 24 32 1004.9 0 18.0 24.2 36.2 95.0 87.5 300.5
21 09:20 14.4 63 7.79 7.6 26 30 1013.1 0 17.8 24.4 36.3 95.2 87.2 299.3
21 09:10 14 66 7.96 7.9 26 32 1013.1 0 18.2 24.8 37.2 97.4 89.8 308.4
21 09:00 13.9 69 8.27 8.3 26 33 1005.2 0 18.9 25.0 38.1 100.0 93.3 320.8
21 08:50 13.5 72 8.42 8.5 24 28 1013.1 5.6 19.2 25.7 39.2 102.9 96.4 331.4
21 08:40 13.2 72 8.27 8.4 24 28 1013.1 5.6 18.9 25.5 38.8 101.7 94.8 325.8
21 08:30 13 73 8.28 8.3 24 35 1005.7 5.6 19.0 25.3 38.6 101.3 94.6 325.1
21 08:20 12.7 73 8.13 8 24 28 1013.1 5.6 18.6 25.4 38.4 100.8 93.5 321.4
21 08:10 12.4 75 8.2 8.1 20 24 1013.1 5.6 18.8 25.6 38.9 102.0 94.8 325.8
21 08:00 12 76 8.1 7.9 19 24 1005.4 5.6 18.6 25.3 38.3 100.6 93.4 320.8
21 07:50 11.6 78 8.11 8 17 19 1013.1 5.6 18.6 25.7 38.9 102.0 94.6 325.0
21 07:40 11.1 79 7.96 7.6 19 22 1013.1 5.6 18.3 25.6 38.5 101.1 93.2 320.0
21 07:30 10.6 80 7.81 7.3 17 22 1005.5 5.6 18.1 25.2 37.8 99.3 91.2 313.0
21 07:20 10.1 83 7.85 7.3 17 20 1013.1 5.6 18.2 25.7 38.6 101.2 92.9 318.9
21 07:10 9.6 84 7.7 7 15 19 1013.1 5.6 17.9 25.6 38.2 100.2 91.5 313.8
21 07:00 9 90 7.94 7.5 9 17 1005.5 5.6 18.4 25.9 39.1 102.8 94.9 325.7
21 06:50 8.3 91 7.67 7 9 9 1013.1 5.6 17.8 26.0 38.7 101.5 92.7 317.6
21 06:40 7.5 91 7.29 6.2 11 11 1013.1 5.6 17.1 25.6 37.5 98.3 88.4 302.6
21 06:30 7.2 92 7.23 6 13 13 1005.4 5.6 17.0 25.2 37.1 97.2 87.3 298.9
21 06:20 6.8 91 6.96 5.4 11 13 1013.1 5.6 16.4 25.2 36.5 95.5 84.7 289.4
21 06:10 6.8 91 6.96 5.4 11 13 1013.1 5.6 16.4 25.2 36.5 95.5 84.7 289.4
21 06:00 6.8 91 6.96 5.4 13 15 1005.4 5.6 16.4 24.9 36.1 94.7 84.1 287.5
21 05:50 6.8 89 6.81 5.2 11 13 1013.1 5.6 16.1 25.0 35.9 93.8 82.6 282.2
21 05:40 6.4 87 6.49 4.4 13 13 1013.1 5.6 15.4 24.5 34.7 90.8 78.7 268.5
21 05:30 7 86 6.67 4.8 11 13 1005.3 5.6 15.7 24.4 34.9 91.3 80.0 273.1
21 05:20 7.5 86 6.89 5.3 11 13 1013.1 5.6 16.2 24.9 35.9 93.9 82.9 283.5
21 05:10 7.8 86 7.02 5.7 13 15 1013.1 5.6 16.5 25.0 36.3 94.9 84.4 288.6
21 04:50 8.1 86 7.16 5.9 15 17 1013.1 5.6 16.8 25.2 36.7 96.1 85.9 294.1
21 04:40 8.3 86 7.25 6.1 15 17 1013.1 5.6 16.9 25.3 37.0 96.9 86.9 297.6
21 04:30 8.5 86 7.35 6.3 17 19 1005.2 5.6 17.2 25.1 36.9 96.9 87.5 299.6
21 04:20 8.6 88 7.56 6.7 15 17 1013.1 5.6 17.6 25.7 38.1 99.9 90.8 311.2
21 04:10 8.7 91 7.87 7.4 19 20 1013.1 5.6 18.3 26.2 39.3 103.2 94.9 325.6
21 04:00 7.2 96 7.54 6.6 15 19 1004.9 5.6 17.6 25.7 38.3 100.6 91.5 313.7
21 03:50 6.8 96 7.35 6.2 17 17 1013.1 5.6 17.2 25.9 38.1 99.9 90.0 308.2
21 03:40 6.9 95 7.32 6.1 11 11 1013.1 5.6 17.2 25.8 37.9 99.4 89.5 306.3
21 03:30 7.4 95 7.56 6.7 9 13 1004.6 5.6 17.7 25.7 38.3 100.5 91.6 313.8
21 03:20 8 96 7.94 7.4 11 11 1013.1 5.6 18.4 26.5 40.0 104.9 96.8 332.0
21 03:10 8.2 96 8.04 7.6 11 11 1013.1 5.6 18.7 26.6 40.3 105.8 97.9 336.0
21 03:00 8.3 96 8.09 7.7 11 13 1004.7 5.6 18.8 26.3 40.1 105.3 97.8 335.7
21 02:50 8.3 96 8.09 7.7 11 11 1013.1 5.6 18.8 26.7 40.5 106.2 98.5 338.0
21 02:40 8.5 95 8.11 7.7 11 11 1013.1 5.6 18.8 26.6 40.5 106.2 98.5 338.1
21 02:30 8.9 96 8.41 8.3 11 13 1004.8 5.6 19.4 26.7 41.1 108.1 101.5 348.7
21 02:20 9.2 96 8.58 8.6 11 11 1013.1 5.6 19.8 27.2 42.1 110.5 104.2 358.0
21 02:10 9.3 95 8.54 8.5 11 13 1013.1 5.6 19.7 27.1 41.9 109.9 103.5 355.6
21 02:00 9.5 95 8.65 8.7 11 13 1005.1 5.6 19.9 27.0 41.9 110.0 104.0 357.8
21 01:50 10 93 8.74 9 9 11 1013.1 5.6 20.1 27.3 42.3 111.2 105.3 362.2
21 01:40 10.4 93 8.97 9.4 9 11 1013.1 5.6 20.6 27.5 43.1 113.3 108.0 371.6
21 01:30 10.8 95 9.39 10 11 13 1005.5 5.6 21.5 27.8 44.3 116.6 112.6 387.9

Last Refresh: 21-Sep-2020 18:24:19

Most of the information presented on this site is sourced from the Bureau of Meteorology.  Copyright in all material sourced from the Bureau of Meteorology resides with the Commonwealth of Australia.